Time;durP1;ratioP1;P1;durP2;ratioP2;P2;SDS_P1;SDS_P2;PMS_P1;PMS_P2;Temp;Humidity;BMP_temperature;BMP_pressure;BME280_temperature;BME280_humidity;BME280_pressure;Samples;Min_cycle;Max_cycle;Signal;HPM_P1;HPM_P2
2022/05/08 00:01:37;;;;;;;21.60;11.48;;;10.90;99.90;;;;;;12358293;28;20038;-39
2022/05/08 00:07:39;;;;;;;22.25;11.48;;;10.70;99.90;;;;;;12377510;28;20050;-48
2022/05/08 00:13:41;;;;;;;24.95;10.85;;;10.70;99.90;;;;;;12373737;28;20465;-40
2022/05/08 00:19:45;;;;;;;26.60;10.80;;;10.60;99.90;;;;;;12376517;28;20054;-39
2022/05/08 00:25:47;;;;;;;24.13;10.23;;;10.50;99.90;;;;;;12376633;28;20046;-40
2022/05/08 00:31:52;;;;;;;21.05;9.02;;;10.40;99.90;;;;;;12375375;28;20078;-41
2022/05/08 00:37:54;;;;;;;17.33;7.85;;;10.40;99.90;;;;;;12395028;28;20057;-40
2022/05/08 00:43:56;;;;;;;17.23;7.03;;;10.50;99.90;;;;;;12383556;28;20078;-39
2022/05/08 00:49:59;;;;;;;18.83;6.20;;;10.40;99.90;;;;;;12385668;28;20054;-40
2022/05/08 00:56:05;;;;;;;20.33;6.00;;;10.40;99.90;;;;;;12382445;28;20081;-39
2022/05/08 01:02:07;;;;;;;18.73;6.22;;;10.20;99.90;;;;;;12383784;28;20094;-40
2022/05/08 01:08:10;;;;;;;21.05;5.65;;;10.00;99.90;;;;;;12385435;28;20085;-39
2022/05/08 01:14:13;;;;;;;18.13;5.57;;;10.00;99.90;;;;;;12387824;28;20054;-40
2022/05/08 01:20:15;;;;;;;19.05;5.03;;;10.10;99.90;;;;;;12380760;28;20828;-40
2022/05/08 01:26:21;;;;;;;20.30;4.57;;;9.90;99.90;;;;;;12384082;28;20109;-39
2022/05/08 01:32:23;;;;;;;15.82;4.35;;;10.10;99.90;;;;;;12382688;28;20069;-41
2022/05/08 01:38:25;;;;;;;15.68;4.22;;;9.90;99.90;;;;;;12384237;28;20069;-39
2022/05/08 01:44:27;;;;;;;19.52;4.22;;;9.80;99.90;;;;;;12381631;28;20054;-39
2022/05/08 01:50:29;;;;;;;25.55;4.72;;;9.40;99.90;;;;;;12379835;28;20137;-39
2022/05/08 01:56:31;;;;;;;20.55;4.03;;;9.60;99.90;;;;;;12383278;28;20089;-40
2022/05/08 02:02:34;;;;;;;19.67;4.90;;;9.40;99.90;;;;;;12380142;28;20054;-41
2022/05/08 02:08:36;;;;;;;17.98;4.32;;;9.50;99.90;;;;;;12381201;28;20069;-40
2022/05/08 02:14:38;;;;;;;12.63;3.70;;;9.60;99.90;;;;;;12382636;28;20339;-39
2022/05/08 02:20:41;;;;;;;18.60;3.38;;;9.50;99.90;;;;;;12382507;28;21038;-39
2022/05/08 02:26:43;;;;;;;21.52;4.20;;;9.40;99.90;;;;;;12380469;28;20531;-40
2022/05/08 02:32:45;;;;;;;23.88;3.95;;;9.30;99.90;;;;;;12377881;28;20078;-39
2022/05/08 02:38:47;;;;;;;15.18;3.25;;;9.20;99.90;;;;;;12378294;28;20050;-40
2022/05/08 02:44:49;;;;;;;22.45;3.92;;;9.00;99.90;;;;;;12378464;28;20058;-39
2022/05/08 02:50:51;;;;;;;17.08;4.10;;;8.90;99.90;;;;;;12382149;28;20046;-40
2022/05/08 03:03:31;;;;;;;21.95;4.55;;;8.90;99.90;;;;;;12319083;28;20046;-39
2022/05/08 03:09:32;;;;;;;20.17;3.67;;;8.90;99.90;;;;;;12377930;28;20084;-40
2022/05/08 03:15:34;;;;;;;20.27;4.03;;;8.90;99.90;;;;;;12377681;28;20058;-39
2022/05/08 03:21:37;;;;;;;21.98;4.32;;;8.70;99.90;;;;;;12377991;28;20085;-40
2022/05/08 03:27:40;;;;;;;19.05;3.83;;;8.70;99.90;;;;;;12375451;28;20081;-38
2022/05/08 03:33:43;;;;;;;12.57;3.63;;;8.90;99.90;;;;;;12374307;28;20461;-40
2022/05/08 03:39:45;;;;;;;15.20;3.28;;;9.00;99.90;;;;;;12375714;28;20057;-39
2022/05/08 03:45:50;;;;;;;17.15;3.63;;;9.10;99.90;;;;;;12374765;28;20096;-40
2022/05/08 03:51:52;;;;;;;16.58;3.33;;;9.10;99.90;;;;;;12374713;28;20054;-39
2022/05/08 03:57:54;;;;;;;14.30;3.45;;;9.20;99.90;;;;;;12376603;28;20111;-39
2022/05/08 04:03:59;;;;;;;17.05;3.80;;;8.80;99.90;;;;;;12379561;28;20046;-40
2022/05/08 04:10:01;;;;;;;15.55;3.53;;;8.50;99.90;;;;;;12376544;28;20549;-39
2022/05/08 04:16:16;;;;;;;16.80;3.35;;;8.30;99.90;;;;;;12378139;28;20069;-38
2022/05/08 04:28:39;;;;;;;16.77;3.53;;;8.70;99.90;;;;;;12373920;28;20165;-39
2022/05/08 04:34:41;;;;;;;14.30;3.30;;;9.00;99.90;;;;;;12371666;28;20054;-39
2022/05/08 04:40:43;;;;;;;15.85;3.38;;;9.10;99.90;;;;;;12375624;28;20066;-40
2022/05/08 04:46:45;;;;;;;14.85;3.10;;;9.10;99.90;;;;;;12373502;28;20058;-39
2022/05/08 04:52:47;;;;;;;12.60;3.33;;;9.10;99.90;;;;;;12372417;28;20458;-39
2022/05/08 04:58:49;;;;;;;18.98;3.28;;;9.00;99.90;;;;;;12372680;28;20442;-40
2022/05/08 05:04:51;;;;;;;10.15;2.75;;;9.00;99.90;;;;;;12374335;28;20050;-40
2022/05/08 05:10:57;;;;;;;15.02;3.17;;;9.30;99.90;;;;;;12375288;28;20506;-39
2022/05/08 05:17:00;;;;;;;12.25;2.88;;;9.40;99.90;;;;;;12376021;28;20748;-39
2022/05/08 05:23:04;;;;;;;15.30;3.20;;;9.40;99.90;;;;;;12374752;28;20459;-39
2022/05/08 05:29:05;;;;;;;14.43;2.70;;;9.50;99.90;;;;;;12384296;28;20059;-39
2022/05/08 05:35:07;;;;;;;16.35;3.25;;;9.50;99.90;;;;;;12380763;28;20079;-40
2022/05/08 05:41:09;;;;;;;16.38;2.88;;;9.60;99.90;;;;;;12382981;28;20582;-41
2022/05/08 05:53:34;;;;;;;11.77;2.22;;;9.50;99.90;;;;;;12380524;28;20055;-39
2022/05/08 05:59:35;;;;;;;12.30;2.08;;;9.30;99.90;;;;;;12383107;28;20050;-39
2022/05/08 06:05:41;;;;;;;12.15;2.50;;;9.40;99.90;;;;;;12381403;28;20038;-39
2022/05/08 06:11:45;;;;;;;;;;;9.40;99.90;;;;;;12382509;28;20149;-39
2022/05/08 06:17:47;;;;;;;11.10;2.38;;;9.40;99.90;;;;;;12386305;28;19925;-39
2022/05/08 06:23:49;;;;;;;12.18;2.47;;;9.40;99.90;;;;;;12386166;28;20149;-39
2022/05/08 06:29:51;;;;;;;9.10;2.45;;;9.40;99.90;;;;;;12384909;28;20058;-40
2022/05/08 06:35:54;;;;;;;11.50;2.83;;;9.50;99.90;;;;;;12383218;28;20049;-39
2022/05/08 06:41:56;;;;;;;12.20;3.03;;;9.50;99.90;;;;;;12380552;28;20088;-39
2022/05/08 06:47:58;;;;;;;14.73;2.95;;;9.70;99.90;;;;;;12382541;28;20053;-39
2022/05/08 06:54:02;;;;;;;11.07;2.95;;;9.70;99.90;;;;;;12400918;28;20054;-39
2022/05/08 07:06:29;;;;;;;22.35;3.25;;;10.00;99.90;;;;;;12344312;28;20054;-39
2022/05/08 07:12:42;;;;;;;14.37;2.87;;;10.20;99.90;;;;;;12383175;28;20058;-39
2022/05/08 07:18:44;;;;;;;15.18;2.38;;;10.50;99.90;;;;;;12381047;28;20046;-39
2022/05/08 07:24:46;;;;;;;11.93;2.50;;;10.50;99.90;;;;;;12382093;28;20054;-39
2022/05/08 07:30:49;;;;;;;11.52;2.75;;;10.40;99.90;;;;;;12381410;28;20104;-40
2022/05/08 07:36:51;;;;;;;10.82;2.67;;;10.20;99.90;;;;;;12383199;28;20085;-41
2022/05/08 07:42:53;;;;;;;15.48;2.67;;;10.20;99.90;;;;;;12386761;28;20088;-39
2022/05/08 07:48:56;;;;;;;13.68;2.88;;;10.40;99.90;;;;;;12381435;28;20085;-39
2022/05/08 07:54:58;;;;;;;16.10;2.70;;;10.50;99.90;;;;;;12380795;28;20519;-41
2022/05/08 08:01:00;;;;;;;13.52;3.03;;;10.50;99.90;;;;;;12377381;28;20046;-39
2022/05/08 08:07:03;;;;;;;13.80;2.70;;;10.30;99.90;;;;;;12375497;28;20046;-41
2022/05/08 08:13:12;;;;;;;14.55;3.47;;;10.30;99.90;;;;;;12371488;28;20145;-40
2022/05/08 08:19:15;;;;;;;11.30;2.58;;;10.50;99.90;;;;;;12374885;28;20698;-39
2022/05/08 08:25:16;;;;;;;12.88;2.75;;;10.70;99.90;;;;;;12372501;28;20434;-39
2022/05/08 08:31:19;;;;;;;17.85;3.65;;;10.80;99.90;;;;;;12377514;28;20453;-40
2022/05/08 08:37:22;;;;;;;12.45;3.22;;;11.20;99.90;;;;;;12375036;28;20330;-41
2022/05/08 08:43:25;;;;;;;17.67;3.55;;;11.50;99.90;;;;;;12373323;28;20137;-41
2022/05/08 08:49:34;;;;;;;11.17;2.57;;;11.70;99.90;;;;;;12370801;28;20107;-41
2022/05/08 08:55:36;;;;;;;12.02;2.92;;;11.40;99.90;;;;;;12366726;28;20092;-40
2022/05/08 09:01:42;;;;;;;9.82;2.38;;;11.40;99.90;;;;;;12404116;28;20050;-40
2022/05/08 09:07:46;;;;;;;10.52;2.95;;;11.70;99.90;;;;;;12361772;28;20141;-40
2022/05/08 09:13:51;;;;;;;10.52;2.40;;;11.80;99.90;;;;;;12396811;28;20081;-41
2022/05/08 09:19:53;;;;;;;12.35;2.22;;;11.90;99.90;;;;;;12418107;28;20141;-41
2022/05/08 09:25:59;;;;;;;7.45;2.10;;;12.00;99.90;;;;;;12424256;28;20081;-41
2022/05/08 09:32:10;;;;;;;12.40;2.55;;;12.30;99.90;;;;;;12417904;28;20056;-41
2022/05/08 09:38:11;;;;;;;8.00;2.30;;;12.70;99.90;;;;;;12424887;28;20521;-41
2022/05/08 09:44:15;;;;;;;12.82;2.45;;;12.70;99.90;;;;;;12423083;28;20084;-39
2022/05/08 09:50:18;;;;;;;15.30;2.92;;;12.90;99.90;;;;;;12415972;28;20064;-39
2022/05/08 09:56:21;;;;;;;10.98;2.85;;;13.00;99.90;;;;;;12420661;28;20156;-41
2022/05/08 10:02:23;;;;;;;11.65;2.22;;;13.20;99.90;;;;;;12424768;28;20495;-39
2022/05/08 10:08:29;;;;;;;12.15;2.42;;;13.10;99.90;;;;;;12424218;28;20136;-39
2022/05/08 10:14:33;;;;;;;8.07;2.25;;;13.30;99.90;;;;;;12423869;28;20141;-41
2022/05/08 10:21:03;;;;;;;11.48;2.60;;;13.70;99.90;;;;;;12426447;28;20037;-40
2022/05/08 10:27:36;;;;;;;9.60;2.40;;;13.80;99.90;;;;;;12425084;28;20152;-39
2022/05/08 10:34:06;;;;;;;11.48;2.60;;;13.80;99.90;;;;;;12427124;28;20136;-42
2022/05/08 10:40:23;;;;;;;9.80;2.43;;;14.10;99.90;;;;;;12425071;28;20399;-39
2022/05/08 10:46:25;;;;;;;7.65;2.05;;;14.20;99.90;;;;;;12423145;28;20297;-39
2022/05/08 10:52:29;;;;;;;10.50;2.42;;;14.40;99.90;;;;;;12423492;28;20149;-40
2022/05/08 10:58:33;;;;;;;6.85;2.00;;;14.90;99.90;;;;;;12423301;28;20058;-40
2022/05/08 11:04:50;;;;;;;7.57;2.45;;;15.00;99.90;;;;;;12426008;28;20461;-41
2022/05/08 11:11:12;;;;;;;7.63;2.35;;;14.80;99.90;;;;;;12419678;28;20485;-41
2022/05/08 11:17:15;;;;;;;9.43;2.90;;;15.20;99.90;;;;;;12418291;28;20050;-41
2022/05/08 11:23:22;;;;;;;8.13;2.70;;;15.40;99.90;;;;;;12423864;28;20080;-40
2022/05/08 11:29:24;;;;;;;16.23;3.58;;;15.40;99.90;;;;;;12423826;28;20788;-41
2022/05/08 11:41:49;;;;;;;7.45;2.40;;;15.70;99.90;;;;;;12424093;28;20057;-40
2022/05/08 11:47:54;;;;;;;8.77;2.42;;;15.60;99.90;;;;;;12416708;28;20255;-40
2022/05/08 11:53:56;;;;;;;8.93;2.83;;;15.60;99.90;;;;;;12423052;28;20476;-41
2022/05/08 12:00:04;;;;;;;8.65;2.40;;;16.10;99.90;;;;;;12420698;28;20060;-40
2022/05/08 12:06:12;;;;;;;9.43;2.58;;;16.00;99.90;;;;;;12420170;28;20065;-41
2022/05/08 12:12:35;;;;;;;13.05;2.38;;;16.30;99.90;;;;;;12420195;28;20053;-42
2022/05/08 12:19:08;;;;;;;7.93;2.30;;;16.10;99.90;;;;;;12427296;28;20050;-41
2022/05/08 12:25:17;;;;;;;7.85;1.95;;;16.10;99.90;;;;;;12427274;28;20053;-41
2022/05/08 12:31:19;;;;;;;13.68;2.50;;;16.30;99.90;;;;;;12427073;28;20149;-39
2022/05/08 12:37:21;;;;;;;7.90;2.10;;;16.30;99.90;;;;;;12440963;28;20199;-39
2022/05/08 12:43:23;;;;;;;5.88;1.75;;;16.50;99.90;;;;;;12437688;28;20076;-40
2022/05/08 12:49:25;;;;;;;6.00;1.52;;;16.90;99.90;;;;;;12436820;28;20420;-41
2022/05/08 12:55:27;;;;;;;4.75;1.50;;;16.90;99.90;;;;;;12438944;28;20058;-41
2022/05/08 13:01:29;;;;;;;6.95;1.80;;;17.00;99.90;;;;;;12435891;28;20050;-40
2022/05/08 13:07:32;;;;;;;6.05;2.05;;;16.90;99.90;;;;;;12436183;28;20050;-39
2022/05/08 13:13:37;;;;;;;9.00;1.80;;;17.10;99.90;;;;;;12437792;28;20461;-39
2022/05/08 13:19:39;;;;;;;8.93;2.25;;;17.40;99.90;;;;;;12438606;28;20061;-39
2022/05/08 13:25:41;;;;;;;7.88;2.45;;;17.00;99.90;;;;;;12432751;28;20844;-39
2022/05/08 13:31:42;;;;;;;7.32;2.20;;;16.80;99.90;;;;;;12409105;28;20085;-39
2022/05/08 13:37:44;;;;;;;8.15;2.22;;;16.90;99.90;;;;;;12390337;28;20042;-41
2022/05/08 13:43:47;;;;;;;6.63;1.75;;;16.60;99.90;;;;;;12392912;28;20057;-39
2022/05/08 13:49:49;;;;;;;8.48;1.70;;;17.00;99.90;;;;;;12425668;28;20100;-39
2022/05/08 13:55:54;;;;;;;6.40;1.90;;;17.40;99.90;;;;;;12431897;28;20054;-39
2022/05/08 14:01:56;;;;;;;9.40;1.98;;;17.40;99.90;;;;;;12436248;28;20414;-39
2022/05/08 14:08:00;;;;;;;7.67;2.20;;;17.30;99.90;;;;;;12424744;28;20050;-41
2022/05/08 14:14:02;;;;;;;9.55;2.10;;;17.10;99.90;;;;;;12458076;28;20053;-39
2022/05/08 14:20:05;;;;;;;7.20;1.88;;;17.40;99.90;;;;;;12483351;28;20044;-39
2022/05/08 14:26:08;;;;;;;7.73;2.20;;;17.30;99.90;;;;;;12480035;28;20942;-39
2022/05/08 14:38:31;;;;;;;8.32;2.15;;;17.20;99.90;;;;;;12479077;28;20449;-39
2022/05/08 14:44:33;;;;;;;8.55;2.17;;;17.00;99.90;;;;;;12481722;28;20057;-40
2022/05/08 14:50:36;;;;;;;8.45;1.98;;;17.00;99.90;;;;;;12476785;28;20091;-41
2022/05/08 14:56:40;;;;;;;7.43;1.88;;;16.90;99.90;;;;;;12480209;28;20053;-39
2022/05/08 15:02:44;;;;;;;9.68;1.73;;;16.90;99.90;;;;;;12475602;28;20049;-41
2022/05/08 15:08:46;;;;;;;6.30;2.00;;;16.90;99.90;;;;;;12476976;28;20060;-39
2022/05/08 15:14:48;;;;;;;6.75;1.63;;;16.90;99.90;;;;;;12476051;28;20503;-39
2022/05/08 15:20:54;;;;;;;6.03;1.80;;;16.80;99.90;;;;;;12481189;28;20064;-41
2022/05/08 15:26:57;;;;;;;6.70;1.73;;;17.30;99.90;;;;;;12486113;28;20053;-39
2022/05/08 15:32:59;;;;;;;7.82;1.52;;;17.30;99.90;;;;;;12481428;28;20084;-39
2022/05/08 15:39:02;;;;;;;5.55;1.50;;;16.90;99.90;;;;;;12479109;28;20037;-39
2022/05/08 15:45:10;;;;;;;6.47;1.30;;;16.70;99.90;;;;;;12478067;28;20068;-39
2022/05/08 15:51:20;;;;;;;5.93;1.80;;;17.10;99.90;;;;;;12466382;28;20144;-39
2022/05/08 15:57:23;;;;;;;6.88;1.30;;;17.10;99.90;;;;;;12482292;28;20044;-41
2022/05/08 16:03:26;;;;;;;6.40;1.80;;;17.30;99.90;;;;;;12481412;28;20561;-39
2022/05/08 16:09:29;;;;;;;7.10;1.77;;;17.40;99.90;;;;;;12479727;28;20057;-39
2022/05/08 16:28:16;;;;;;;5.40;1.67;;;18.00;99.90;;;;;;12480795;28;20073;-39
2022/05/08 16:34:19;;;;;;;6.93;1.52;;;18.10;99.90;;;;;;12478524;28;20042;-40
2022/05/08 16:40:24;;;;;;;9.32;1.70;;;18.00;99.90;;;;;;12478653;28;20129;-41
2022/05/08 16:46:26;;;;;;;8.48;1.55;;;17.90;99.90;;;;;;12478649;28;20144;-39
2022/05/08 16:52:28;;;;;;;6.88;1.88;;;18.10;99.90;;;;;;12477477;28;20053;-40
2022/05/08 16:58:30;;;;;;;8.68;2.20;;;18.00;99.90;;;;;;12476143;28;20475;-40
2022/05/08 17:04:33;;;;;;;8.82;1.58;;;17.80;99.90;;;;;;12476414;28;20464;-40
2022/05/08 17:10:45;;;;;;;6.45;1.80;;;18.20;99.90;;;;;;12484205;28;20046;-39
2022/05/08 17:16:49;;;;;;;11.85;2.30;;;17.90;99.90;;;;;;12483291;28;20132;-39
2022/05/08 17:22:53;;;;;;;7.07;1.85;;;17.80;99.90;;;;;;12490973;28;20056;-39
2022/05/08 17:28:56;;;;;;;6.43;2.05;;;17.90;99.90;;;;;;12492814;28;20482;-41
2022/05/08 17:35:03;;;;;;;9.48;1.70;;;17.90;99.90;;;;;;12487197;28;20041;-41
2022/05/08 17:41:17;;;;;;;9.25;1.98;;;17.80;99.90;;;;;;12497685;28;20075;-39
2022/05/08 17:47:29;;;;;;;6.97;1.80;;;18.00;99.90;;;;;;12495529;28;20421;-39
2022/05/08 17:53:39;;;;;;;7.53;1.83;;;18.00;99.90;;;;;;12488733;28;20122;-39
2022/05/08 17:59:47;;;;;;;10.00;1.70;;;17.70;99.90;;;;;;12495596;28;20052;-39
2022/05/08 18:05:56;;;;;;;11.10;2.15;;;16.90;99.90;;;;;;12482425;28;20065;-39
2022/05/08 18:12:05;;;;;;;5.47;1.80;;;16.70;99.90;;;;;;12492803;28;20057;-39
2022/05/08 18:18:14;;;;;;;5.32;1.77;;;16.10;99.90;;;;;;12494132;28;20175;-40
2022/05/08 18:24:23;;;;;;;10.60;2.15;;;15.80;99.90;;;;;;12485147;28;20163;-40
2022/05/08 18:30:32;;;;;;;7.35;1.65;;;15.60;99.90;;;;;;12493108;28;20425;-39
2022/05/08 18:36:42;;;;;;;6.50;1.80;;;15.40;99.90;;;;;;12492183;28;20064;-39
2022/05/08 18:42:52;;;;;;;9.30;2.20;;;15.20;99.90;;;;;;12487463;28;20127;-39
2022/05/08 18:55:24;;;;;;;13.02;2.30;;;14.90;99.90;;;;;;12489319;28;20103;-39
2022/05/08 19:01:31;;;;;;;10.25;2.33;;;14.70;99.90;;;;;;12488893;28;20056;-39
2022/05/08 19:07:37;;;;;;;8.93;2.50;;;14.60;99.90;;;;;;12490218;28;20085;-40
2022/05/08 19:13:41;;;;;;;7.17;1.93;;;14.40;99.90;;;;;;12488223;28;20050;-39
2022/05/08 19:19:46;;;;;;;8.60;2.30;;;14.30;99.90;;;;;;12486627;28;20068;-39
2022/05/08 19:25:49;;;;;;;9.95;1.88;;;14.10;99.90;;;;;;12487999;28;20057;-39
2022/05/08 19:38:12;;;;;;;8.05;2.00;;;13.90;99.90;;;;;;12486836;28;20081;-41
2022/05/08 19:44:16;;;;;;;7.80;2.20;;;13.80;99.90;;;;;;12483511;28;20399;-39
2022/05/08 19:50:19;;;;;;;9.60;2.10;;;13.70;99.90;;;;;;12482772;28;20049;-39
2022/05/08 19:56:25;;;;;;;8.20;2.03;;;13.40;99.90;;;;;;12486628;28;20124;-40
2022/05/08 20:02:29;;;;;;;9.02;2.00;;;13.30;99.90;;;;;;12482910;28;20091;-40
2022/05/08 20:08:31;;;;;;;9.48;2.10;;;13.30;99.90;;;;;;12483113;28;20053;-40
2022/05/08 20:14:35;;;;;;;7.35;1.98;;;13.20;99.90;;;;;;12479216;28;20060;-39
2022/05/08 20:27:01;;;;;;;7.63;1.85;;;12.90;99.90;;;;;;12483825;28;20049;-40
2022/05/08 20:33:11;;;;;;;9.00;2.30;;;12.80;99.90;;;;;;12483791;28;20084;-39
2022/05/08 20:39:18;;;;;;;7.40;1.95;;;12.70;99.90;;;;;;12483827;28;20098;-39
2022/05/08 20:45:21;;;;;;;5.35;2.25;;;12.70;99.90;;;;;;12465816;28;20049;-39
2022/05/08 20:51:24;;;;;;;6.43;1.70;;;12.60;99.90;;;;;;12478375;28;20068;-39
2022/05/08 20:57:26;;;;;;;9.60;1.85;;;12.60;99.90;;;;;;12490600;28;20049;-40
2022/05/08 21:03:28;;;;;;;8.52;2.08;;;12.50;99.90;;;;;;12488036;28;20057;-40
2022/05/08 21:09:30;;;;;;;5.80;2.10;;;12.50;99.90;;;;;;12488481;28;20148;-39
2022/05/08 21:15:32;;;;;;;7.93;1.77;;;12.40;99.90;;;;;;12488582;28;20053;-39
2022/05/08 21:21:36;;;;;;;6.93;1.80;;;12.30;99.90;;;;;;12488189;28;20062;-40
2022/05/08 21:27:39;;;;;;;8.65;2.20;;;12.20;99.90;;;;;;12489888;28;20064;-39
2022/05/08 21:33:42;;;;;;;7.90;2.13;;;12.20;99.90;;;;;;12489316;28;20110;-38
2022/05/08 21:39:44;;;;;;;7.43;2.05;;;12.00;99.90;;;;;;12490474;28;20049;-40
2022/05/08 21:45:46;;;;;;;11.35;2.22;;;12.00;99.90;;;;;;12486766;28;20098;-38
2022/05/08 21:51:48;;;;;;;8.80;2.05;;;11.90;99.90;;;;;;12485704;28;20570;-38
2022/05/08 21:57:51;;;;;;;17.00;2.15;;;11.80;99.90;;;;;;12486373;28;20167;-39
2022/05/08 22:03:53;;;;;;;9.57;2.50;;;11.60;99.90;;;;;;12482063;28;20095;-38
2022/05/08 22:09:56;;;;;;;12.13;2.42;;;11.60;99.90;;;;;;12485551;28;20481;-38
2022/05/08 22:15:58;;;;;;;6.68;2.15;;;11.50;99.90;;;;;;12483161;28;20103;-40
2022/05/08 22:22:00;;;;;;;10.38;2.38;;;11.50;99.90;;;;;;12483788;28;20941;-39
2022/05/08 22:28:02;;;;;;;8.55;2.13;;;11.40;99.90;;;;;;12485834;28;20499;-39
2022/05/08 22:34:05;;;;;;;12.95;2.50;;;11.20;99.90;;;;;;12485496;28;20080;-39
2022/05/08 22:40:08;;;;;;;9.73;2.28;;;11.20;99.90;;;;;;12484468;28;20045;-38
2022/05/08 22:46:11;;;;;;;13.63;2.53;;;11.20;99.90;;;;;;12483210;28;20072;-40
2022/05/08 22:52:13;;;;;;;12.52;2.45;;;11.10;99.90;;;;;;12481358;28;20132;-40
2022/05/08 22:58:15;;;;;;;12.27;2.63;;;11.20;99.90;;;;;;12484795;28;20061;-39
2022/05/08 23:04:17;;;;;;;9.18;2.65;;;11.10;99.90;;;;;;12481144;28;20050;-40
2022/05/08 23:10:19;;;;;;;13.18;2.28;;;11.00;99.90;;;;;;12482993;28;20601;-38
2022/05/08 23:16:21;;;;;;;7.03;2.00;;;10.90;99.90;;;;;;12483257;28;20558;-38
2022/05/08 23:22:25;;;;;;;10.07;2.33;;;11.10;99.90;;;;;;12481717;28;20061;-38
2022/05/08 23:28:37;;;;;;;9.07;2.20;;;11.10;99.90;;;;;;12483438;28;20489;-39
2022/05/08 23:34:40;;;;;;;9.00;2.67;;;11.10;99.90;;;;;;12481936;28;20417;-39
2022/05/08 23:40:43;;;;;;;15.23;3.15;;;10.90;99.90;;;;;;12480385;28;20056;-39
2022/05/08 23:46:45;;;;;;;13.88;2.97;;;11.00;99.90;;;;;;12479387;28;20521;-40
2022/05/08 23:52:50;;;;;;;9.93;2.47;;;10.90;99.90;;;;;;12478162;28;20521;-39
2022/05/08 23:58:52;;;;;;;9.60;2.20;;;10.70;99.90;;;;;;12481971;28;20095;-39
